createdAt,value
2019-05-18T00:03:18.034Z,22.80
2019-05-18T00:08:20.990Z,22.50
2019-05-18T00:13:23.987Z,25.03
2019-05-18T00:18:26.491Z,30.43
2019-05-18T00:23:29.381Z,32.30
2019-05-18T00:28:32.662Z,31.90
2019-05-18T00:33:35.662Z,27.27
2019-05-18T00:38:38.568Z,28.53
2019-05-18T00:43:41.919Z,29.53
2019-05-18T00:48:44.825Z,26.80
2019-05-18T00:53:47.733Z,26.67
2019-05-18T00:58:51.192Z,24.80
2019-05-18T01:03:54.818Z,22.90
2019-05-18T01:08:57.808Z,22.40
2019-05-18T01:14:00.661Z,22.37
2019-05-18T01:19:03.871Z,23.90
2019-05-18T01:24:07.076Z,23.07
2019-05-18T01:29:09.569Z,22.53
2019-05-18T01:34:12.836Z,26.43
2019-05-18T01:39:15.696Z,22.90
2019-05-18T01:44:18.903Z,23.90
2019-05-18T01:49:22.003Z,25.47
2019-05-18T01:54:25.013Z,26.10
2019-05-18T01:59:28.647Z,29.47
2019-05-18T02:04:31.676Z,29.73
2019-05-18T02:09:34.596Z,29.73
2019-05-18T02:14:37.116Z,26.00
2019-05-18T02:19:40.265Z,26.50
2019-05-18T02:24:43.631Z,27.67
2019-05-18T02:29:47.784Z,26.20
2019-05-18T02:34:51.299Z,24.60
2019-05-18T02:39:56.333Z,26.57
2019-05-18T02:44:59.309Z,26.87
2019-05-18T02:50:02.370Z,28.30
2019-05-18T02:55:06.481Z,24.97
2019-05-18T03:00:10.748Z,27.67
2019-05-18T03:05:14.434Z,25.83
2019-05-18T03:10:19.267Z,23.87
2019-05-18T03:15:22.849Z,23.50
2019-05-18T03:20:26.109Z,23.13
2019-05-18T03:25:29.623Z,27.10
2019-05-18T03:30:32.834Z,25.20
2019-05-18T03:35:36.058Z,24.83
2019-05-18T03:40:39.690Z,26.83
2019-05-18T03:45:42.242Z,25.40
2019-05-18T03:50:45.464Z,26.40
2019-05-18T03:55:47.963Z,25.73
2019-05-18T04:00:51.155Z,28.43
2019-05-18T04:05:56.665Z,27.73
2019-05-18T04:10:59.869Z,29.07
2019-05-18T04:16:02.885Z,27.53
2019-05-18T04:21:07.921Z,27.10
2019-05-18T04:26:11.092Z,26.20
2019-05-18T04:31:14.623Z,24.47
2019-05-18T04:36:17.194Z,27.47
2019-05-18T04:41:20.056Z,26.67
2019-05-18T04:46:22.900Z,26.30
2019-05-18T04:51:26.167Z,22.77
2019-05-18T04:56:29.380Z,23.60
2019-05-18T05:01:32.601Z,22.20
2019-05-18T05:06:35.537Z,27.40
2019-05-18T05:11:38.683Z,23.83
2019-05-18T05:16:41.539Z,25.57
2019-05-18T05:21:44.958Z,23.67
2019-05-18T05:26:48.234Z,23.27
2019-05-18T05:31:51.091Z,23.10
2019-05-18T05:36:53.838Z,21.17
2019-05-18T05:41:57.006Z,23.07
2019-05-18T05:47:00.342Z,21.47
2019-05-18T05:52:03.886Z,20.47
2019-05-18T05:57:07.367Z,20.23
2019-05-18T06:02:10.499Z,21.07
2019-05-18T06:07:13.709Z,22.47
2019-05-18T06:12:16.594Z,21.53
2019-05-18T06:17:21.060Z,20.93
2019-05-18T06:22:25.452Z,21.83
2019-05-18T06:27:28.451Z,23.00
2019-05-18T06:32:32.379Z,18.40
2019-05-18T06:37:35.209Z,21.77
2019-05-18T06:42:38.513Z,19.10
2019-05-18T06:47:41.728Z,21.07
2019-05-18T06:52:45.421Z,22.53
2019-05-18T06:57:49.898Z,18.60
2019-05-18T07:02:52.997Z,20.43
2019-05-18T07:07:57.646Z,20.50
2019-05-18T07:13:00.510Z,20.47
2019-05-18T07:18:03.507Z,20.27
2019-05-18T07:23:06.762Z,19.03
2019-05-18T07:28:09.912Z,19.43
2019-05-18T07:33:13.113Z,19.67
2019-05-18T07:38:16.294Z,20.10
2019-05-18T07:43:18.819Z,19.77
2019-05-18T07:48:22.380Z,21.00
2019-05-18T07:53:25.911Z,17.93
2019-05-18T07:58:28.763Z,21.03
2019-05-18T08:03:31.638Z,21.20
2019-05-18T08:08:34.796Z,19.23
2019-05-18T08:13:37.980Z,19.77
2019-05-18T08:18:41.461Z,19.83
2019-05-18T08:23:44.659Z,19.57
2019-05-18T08:28:47.136Z,20.23
2019-05-18T08:33:50.053Z,20.07
2019-05-18T08:38:52.957Z,20.93
2019-05-18T08:43:56.560Z,20.37
2019-05-18T08:48:59.801Z,22.00
2019-05-18T08:54:02.953Z,22.37
2019-05-18T08:59:05.917Z,23.00
2019-05-18T09:04:08.535Z,29.83
2019-05-18T09:09:11.461Z,24.80
2019-05-18T09:14:14.401Z,26.00
2019-05-18T09:19:17.611Z,24.67
2019-05-18T09:24:20.133Z,24.40
2019-05-18T09:29:23.512Z,24.37
2019-05-18T09:34:28.213Z,26.53
2019-05-18T09:39:35.667Z,23.90
2019-05-18T09:44:38.905Z,28.20
2019-05-18T09:49:46.824Z,27.87
2019-05-18T09:54:50.355Z,24.20
2019-05-18T09:59:53.244Z,23.40
2019-05-18T10:04:56.297Z,26.13
2019-05-18T10:10:02.127Z,23.40
2019-05-18T10:15:05.229Z,21.20
2019-05-18T10:20:10.601Z,23.83
2019-05-18T10:25:13.879Z,20.77
2019-05-18T10:30:17.067Z,23.27
2019-05-18T10:35:20.017Z,22.80
2019-05-18T10:40:22.804Z,24.17
2019-05-18T10:45:25.327Z,20.90
2019-05-18T10:50:28.698Z,21.20
2019-05-18T10:55:31.369Z,18.47
2019-05-18T11:00:35.428Z,18.07
2019-05-18T11:05:38.636Z,16.60
2019-05-18T11:10:42.233Z,18.87
2019-05-18T11:15:44.756Z,18.73
2019-05-18T11:20:47.665Z,18.73
2019-05-18T11:25:51.234Z,16.20
2019-05-18T11:30:54.729Z,16.83
2019-05-18T11:35:57.898Z,18.17
2019-05-18T11:41:02.140Z,14.17
2019-05-18T11:46:05.320Z,18.63
2019-05-18T11:51:08.242Z,22.10
2019-05-18T11:56:11.557Z,19.70
2019-05-18T12:01:14.353Z,21.13
2019-05-18T12:06:17.891Z,22.57
2019-05-18T12:11:21.408Z,24.00
2019-05-18T12:16:24.618Z,21.80
2019-05-18T12:21:27.725Z,24.13
2019-05-18T12:26:30.711Z,24.47
2019-05-18T12:31:33.400Z,23.67
2019-05-18T12:36:36.631Z,27.13
2019-05-18T12:41:39.936Z,26.47
2019-05-18T12:46:42.930Z,28.83
2019-05-18T12:51:46.360Z,27.33
2019-05-18T12:56:49.580Z,24.97
2019-05-18T13:01:53.080Z,27.93
2019-05-18T13:06:56.388Z,28.73
2019-05-18T13:11:59.606Z,30.40
2019-05-18T13:17:02.901Z,30.97
2019-05-18T13:22:06.262Z,30.10
2019-05-18T13:27:08.762Z,28.77
2019-05-18T13:32:11.666Z,30.97
2019-05-18T13:37:14.650Z,29.40
2019-05-18T13:42:18.960Z,29.30
2019-05-18T13:47:22.456Z,29.60
2019-05-18T13:52:26.001Z,28.40
2019-05-18T13:57:29.303Z,25.40
2019-05-18T14:02:32.222Z,29.70
2019-05-18T14:07:35.397Z,25.47
2019-05-18T14:12:38.315Z,23.10
2019-05-18T14:17:41.492Z,23.73
2019-05-18T14:22:44.845Z,22.07
2019-05-18T14:27:47.753Z,18.17
2019-05-18T14:32:51.019Z,21.63
2019-05-18T14:37:54.620Z,22.00
2019-05-18T14:42:57.889Z,20.50
2019-05-18T14:48:01.390Z,21.50
2019-05-18T14:53:05.073Z,23.43
2019-05-18T14:58:08.661Z,21.80
2019-05-18T15:03:11.965Z,21.97
2019-05-18T15:08:15.160Z,18.17
2019-05-18T15:13:17.669Z,20.97
2019-05-18T15:18:22.302Z,21.73
2019-05-18T15:23:25.184Z,20.43
2019-05-18T15:28:28.824Z,21.67
2019-05-18T15:33:32.235Z,20.57
2019-05-18T15:38:36.888Z,20.77
2019-05-18T15:43:40.065Z,21.67
2019-05-18T15:48:43.351Z,20.43
2019-05-18T15:53:46.290Z,22.00
2019-05-18T15:58:49.850Z,24.67
2019-05-18T16:03:53.045Z,21.87
2019-05-18T16:08:56.156Z,22.87
2019-05-18T16:13:59.704Z,23.23
2019-05-18T16:19:02.882Z,24.90
2019-05-18T16:24:05.736Z,24.33
2019-05-18T16:29:09.175Z,24.00
2019-05-18T16:34:12.402Z,25.53
2019-05-18T16:39:15.976Z,27.57
2019-05-18T16:44:19.654Z,24.70
2019-05-18T16:49:24.258Z,26.10
2019-05-18T16:54:27.801Z,27.10
2019-05-18T16:59:31.377Z,22.70
2019-05-18T17:04:34.929Z,23.83
2019-05-18T17:09:37.424Z,23.97
2019-05-18T17:14:41.295Z,24.60
2019-05-18T17:19:44.384Z,24.03
2019-05-18T17:24:47.882Z,23.33
2019-05-18T17:29:51.243Z,23.67
2019-05-18T17:34:54.624Z,24.20
2019-05-18T17:39:58.135Z,27.47
2019-05-18T17:45:01.396Z,28.73
2019-05-18T17:50:05.141Z,23.83
2019-05-18T17:55:09.078Z,24.90
2019-05-18T18:00:12.598Z,28.47
2019-05-18T18:05:15.792Z,25.23
2019-05-18T18:10:19.233Z,26.10
2019-05-18T18:15:22.489Z,26.80
2019-05-18T18:20:25.937Z,24.67
2019-05-18T18:25:29.576Z,26.00
2019-05-18T18:30:33.245Z,25.50
2019-05-18T18:35:39.579Z,26.77
2019-05-18T18:40:42.402Z,23.50
2019-05-18T18:45:46.057Z,24.57
2019-05-18T18:50:49.676Z,24.93
2019-05-18T18:55:52.666Z,26.37
2019-05-18T19:00:56.302Z,24.97
2019-05-18T19:05:59.568Z,26.00
2019-05-18T19:11:02.460Z,25.60
2019-05-18T19:16:05.376Z,27.37
2019-05-18T19:21:08.725Z,27.90
2019-05-18T19:26:11.697Z,28.27
2019-05-18T19:31:15.766Z,28.77
2019-05-18T19:36:19.130Z,30.27
2019-05-18T19:41:23.282Z,31.00
2019-05-18T19:46:26.930Z,31.00
2019-05-18T19:51:29.981Z,34.07
2019-05-18T19:56:39.525Z,30.47
2019-05-18T20:01:39.468Z,31.17
2019-05-18T20:06:42.983Z,32.27
2019-05-18T20:11:46.304Z,30.70
2019-05-18T20:16:48.974Z,34.30
2019-05-18T20:21:52.156Z,37.70
2019-05-18T20:26:55.483Z,49.73
2019-05-18T20:31:59.456Z,32.07
2019-05-18T20:37:02.461Z,30.97
2019-05-18T20:42:05.576Z,32.07
2019-05-18T20:47:08.762Z,36.30
2019-05-18T20:52:11.913Z,36.57
2019-05-18T20:57:15.243Z,33.17
2019-05-18T21:02:18.500Z,38.53
2019-05-18T21:07:21.820Z,37.20
2019-05-18T21:12:24.824Z,35.40
2019-05-18T21:17:28.190Z,35.63
2019-05-18T21:22:31.748Z,36.07
2019-05-18T21:27:34.910Z,35.43
2019-05-18T21:32:37.762Z,37.90
2019-05-18T21:37:41.271Z,38.30
2019-05-18T21:42:44.858Z,40.10
2019-05-18T21:47:48.232Z,35.10
2019-05-18T21:52:53.211Z,55.57
2019-05-18T21:57:56.116Z,38.50
2019-05-18T22:03:00.411Z,41.73
2019-05-18T22:08:03.349Z,38.87
2019-05-18T22:13:06.683Z,38.20
2019-05-18T22:18:23.612Z,37.60
2019-05-18T22:23:15.503Z,40.67
2019-05-18T22:28:18.901Z,32.47
2019-05-18T22:33:21.885Z,32.13
2019-05-18T22:38:25.451Z,30.70
2019-05-18T22:43:28.953Z,28.87
2019-05-18T22:48:41.335Z,29.43
2019-05-18T22:53:37.279Z,29.93
2019-05-18T22:58:40.213Z,28.00
2019-05-18T23:03:43.405Z,29.77
2019-05-18T23:08:46.924Z,28.83
2019-05-18T23:13:50.158Z,26.97
2019-05-18T23:18:56.924Z,25.87
2019-05-18T23:23:58.124Z,23.00
2019-05-18T23:29:01.679Z,21.30
2019-05-18T23:34:04.527Z,21.17
2019-05-18T23:39:07.446Z,23.20
2019-05-18T23:44:10.676Z,21.73
2019-05-18T23:49:13.977Z,21.60
2019-05-18T23:54:17.168Z,18.90
2019-05-18T23:59:20.068Z,17.13
